Time;durP1;ratioP1;P1;durP2;ratioP2;P2;SDS_P1;SDS_P2;PMS_P1;PMS_P2;Temp;Humidity;BMP_temperature;BMP_pressure;BME280_temperature;BME280_humidity;BME280_pressure;Samples;Min_cycle;Max_cycle;Signal;HPM_P1;HPM_P2
2021/09/29 00:00:57;;;;;;;15.57;13.97;;;;;;;13.88;86.74;99750.69;5017976;28;20233;-88
2021/09/29 00:03:24;;;;;;;17.67;13.57;;;;;;;13.85;86.78;99753.88;5017693;28;20221;-87
2021/09/29 00:05:51;;;;;;;14.50;12.93;;;;;;;13.81;87.15;99744.59;5018274;28;20227;-90
2021/09/29 00:08:17;;;;;;;14.90;13.30;;;;;;;13.75;86.94;99736.66;5017523;28;20243;-90
2021/09/29 00:10:44;;;;;;;17.77;13.57;;;;;;;13.74;86.42;99743.09;5018032;28;20239;-85
2021/09/29 00:13:11;;;;;;;17.07;13.87;;;;;;;13.65;87.07;99737.25;5001569;28;20234;-91
2021/09/29 00:15:38;;;;;;;17.70;14.33;;;;;;;13.67;87.11;99737.84;5018039;28;20291;-89
2021/09/29 00:18:05;;;;;;;17.50;13.80;;;;;;;13.60;86.91;99731.78;5001886;28;20230;-91
2021/09/29 00:20:32;;;;;;;17.53;13.47;;;;;;;13.52;87.00;99721.38;5001583;28;20242;-88
2021/09/29 00:22:59;;;;;;;17.23;14.00;;;;;;;13.47;87.20;99724.78;5021388;28;20237;-89
2021/09/29 00:25:25;;;;;;;16.17;14.47;;;;;;;13.46;86.91;99725.00;5021502;28;20224;-90
2021/09/29 00:27:52;;;;;;;16.30;13.80;;;;;;;13.43;87.08;99736.25;5021313;28;20221;-90
2021/09/29 00:30:20;;;;;;;15.87;13.93;;;;;;;13.31;87.26;99717.41;5020982;28;20239;-90
2021/09/29 00:32:47;;;;;;;15.83;14.23;;;;;;;13.33;87.33;99725.25;5005416;28;20631;-87
2021/09/29 00:35:15;;;;;;;14.90;13.40;;;;;;;13.25;87.29;99721.03;5021209;28;20306;-90
2021/09/29 00:37:42;;;;;;;15.33;13.73;;;;;;;13.27;87.53;99718.13;5021250;28;20255;-90
2021/09/29 00:40:10;;;;;;;13.63;12.13;;;;;;;13.16;87.43;99712.50;5004209;28;20285;-89
2021/09/29 00:42:37;;;;;;;15.43;13.50;;;;;;;13.22;87.43;99716.94;5004856;28;20231;-90
2021/09/29 00:45:06;;;;;;;16.87;13.90;;;;;;;13.17;87.07;99705.25;5005029;28;20226;-88
2021/09/29 00:47:32;;;;;;;15.13;13.40;;;;;;;13.10;87.68;99701.84;5020914;28;20237;-91
2021/09/29 00:49:59;;;;;;;15.23;13.53;;;;;;;13.08;87.06;99703.94;5004658;28;20290;-88
2021/09/29 00:52:27;;;;;;;16.93;14.07;;;;;;;13.06;87.41;99697.97;5004236;28;20277;-90
2021/09/29 00:54:54;;;;;;;15.83;13.87;;;;;;;13.01;87.20;99687.94;5020899;28;20690;-86
2021/09/29 00:57:21;;;;;;;15.20;13.67;;;;;;;13.00;87.56;99690.84;5004430;28;20226;-90
2021/09/29 00:59:49;;;;;;;15.40;13.73;;;;;;;12.99;87.34;99702.66;5021014;28;20232;-89
2021/09/29 01:02:16;;;;;;;16.90;14.10;;;;;;;12.95;87.48;99688.84;5003858;28;20239;-91
2021/09/29 01:04:44;;;;;;;15.57;13.53;;;;;;;12.94;87.84;99691.75;5020510;28;20223;-86
2021/09/29 01:07:21;;;;;;;16.90;13.30;;;;;;;12.94;87.93;99689.91;5020857;28;20254;-90
2021/09/29 01:10:13;;;;;;;17.07;14.13;;;;;;;12.98;88.15;99687.56;5004619;28;20236;-90
2021/09/29 01:12:53;;;;;;;16.07;13.90;;;;;;;12.91;87.86;99682.31;5020619;28;20303;-87
2021/09/29 01:15:28;;;;;;;17.63;14.67;;;;;;;12.96;87.54;99686.97;5004360;28;20512;-88
2021/09/29 01:18:03;;;;;;;15.97;13.70;;;;;;;12.86;87.65;99657.16;5004010;28;20230;-90
2021/09/29 01:21:04;;;;;;;16.03;13.50;;;;;;;12.95;87.69;99670.03;5004089;28;20229;-89
2021/09/29 01:23:43;;;;;;;15.33;13.70;;;;;;;12.95;87.86;99667.34;4983519;28;20529;-90
2021/09/29 01:26:15;;;;;;;15.07;13.47;;;;;;;12.90;87.59;99653.78;5037409;28;20237;-89
2021/09/29 01:28:49;;;;;;;17.40;14.00;;;;;;;12.90;87.63;99661.84;5020025;28;20229;-89
2021/09/29 01:31:17;;;;;;;16.40;13.57;;;;;;;12.86;87.27;99644.53;5020149;28;20233;-88
2021/09/29 01:33:44;;;;;;;14.67;13.17;;;;;;;12.89;86.77;99645.94;5003801;28;20507;-90
2021/09/29 01:36:11;;;;;;;16.17;13.57;;;;;;;12.82;86.94;99647.94;5003616;28;20239;-86
2021/09/29 01:38:47;;;;;;;16.53;13.63;;;;;;;12.78;87.42;99651.06;5020637;28;20254;-88
2021/09/29 01:41:14;;;;;;;15.47;13.70;;;;;;;12.65;87.26;99628.97;5037681;28;20226;-89
2021/09/29 01:43:41;;;;;;;16.23;14.43;;;;;;;12.73;87.43;99653.66;5038018;28;20257;-87
2021/09/29 01:46:08;;;;;;;18.07;14.57;;;;;;;12.69;87.77;99652.47;5020010;28;20234;-86
2021/09/29 01:48:50;;;;;;;15.60;14.00;;;;;;;12.67;87.68;99645.69;5037319;28;20244;-90
2021/09/29 01:51:18;;;;;;;17.30;14.80;;;;;;;12.70;87.62;99656.78;5020067;28;20230;-87
2021/09/29 01:53:47;;;;;;;17.47;15.10;;;;;;;12.69;87.77;99652.47;5020092;28;20258;-87
2021/09/29 01:56:15;;;;;;;19.00;16.13;;;;;;;12.76;87.63;99658.56;5019314;28;20313;-87
2021/09/29 01:58:42;;;;;;;20.57;16.43;;;;;;;12.68;87.84;99650.03;5019728;28;20231;-90
2021/09/29 02:01:10;;;;;;;20.20;15.67;;;;;;;12.67;88.10;99643.84;5004022;28;20237;-87
2021/09/29 02:03:37;;;;;;;18.03;15.97;;;;;;;12.61;87.90;99635.88;4987224;28;20591;-87
2021/09/29 02:06:04;;;;;;;19.10;15.60;;;;;;;12.61;87.93;99636.69;5019566;28;20227;-85
2021/09/29 02:08:30;;;;;;;20.57;16.53;;;;;;;12.55;88.17;99623.38;5003850;28;20232;-88
2021/09/29 02:11:00;;;;;;;22.03;16.30;;;;;;;12.57;87.99;99624.78;5020394;28;20265;-88
2021/09/29 02:13:31;;;;;;;18.90;15.90;;;;;;;12.53;87.70;99623.59;5020591;28;20227;-87
2021/09/29 02:15:57;;;;;;;19.90;17.13;;;;;;;12.54;87.83;99645.94;5038362;28;20257;-89
2021/09/29 02:18:24;;;;;;;19.97;16.43;;;;;;;12.44;88.17;99625.00;5021043;28;20234;-85
2021/09/29 02:20:52;;;;;;;19.40;16.47;;;;;;;12.43;88.17;99626.03;5005494;28;20216;-88
2021/09/29 02:23:22;;;;;;;17.40;15.60;;;;;;;12.46;88.27;99633.63;5007734;28;20214;-84
2021/09/29 02:25:49;;;;;;;17.77;15.40;;;;;;;12.38;87.19;99628.59;5022819;28;20226;-86
2021/09/29 02:28:16;;;;;;;19.37;16.63;;;;;;;12.33;88.34;99644.59;5025162;28;20296;-88
2021/09/29 02:30:45;;;;;;;17.83;15.90;;;;;;;12.24;87.94;99624.47;5030217;28;20225;-84
2021/09/29 02:33:13;;;;;;;18.87;16.27;;;;;;;12.26;87.86;99633.97;5030986;28;20221;-87
2021/09/29 02:35:40;;;;;;;20.43;15.77;;;;;;;12.22;88.04;99616.69;5051748;28;20317;-82
2021/09/29 02:38:11;;;;;;;19.53;16.77;;;;;;;12.17;88.12;99627.28;5053135;28;20229;-83
2021/09/29 02:40:53;;;;;;;17.17;15.20;;;;;;;12.11;88.04;99622.81;5062239;23;20297;-82
2021/09/29 02:43:47;;;;;;;17.37;15.50;;;;;;;11.95;88.02;99604.66;5008536;23;20252;-82
2021/09/29 02:46:21;;;;;;;18.00;15.67;;;;;;;11.96;87.86;99605.50;5054921;23;20225;-81
2021/09/29 02:49:18;;;;;;;17.40;15.43;;;;;;;11.94;88.09;99608.41;5096670;23;20284;-81
2021/09/29 02:51:54;;;;;;;18.77;15.77;;;;;;;11.83;88.26;99599.28;5072651;22;20219;-81
2021/09/29 02:54:45;;;;;;;17.57;15.63;;;;;;;11.70;88.26;99586.00;5090854;23;20221;-80
2021/09/29 02:58:09;;;;;;;18.83;15.43;;;;;;;11.80;88.48;99620.41;5019794;23;20661;-81
2021/09/29 03:01:34;;;;;;;17.57;15.60;;;;;;;11.93;88.34;99640.84;5003018;22;20233;-81
2021/09/29 03:04:43;;;;;;;16.40;14.60;;;;;;;11.84;88.28;99617.03;5027282;23;20236;-81
2021/09/29 03:07:10;;;;;;;17.77;14.97;;;;;;;11.89;87.97;99630.59;5007846;23;20241;-81
2021/09/29 03:10:12;;;;;;;16.00;14.40;;;;;;;11.87;88.34;99623.78;5108975;23;20255;-81
2021/09/29 03:13:05;;;;;;;17.97;14.73;;;;;;;11.93;88.50;99636.31;5031939;23;20237;-81
2021/09/29 03:16:02;;;;;;;18.70;13.83;;;;;;;11.93;88.13;99622.06;5055890;28;20166;-81
2021/09/29 03:18:41;;;;;;;16.13;14.10;;;;;;;11.95;88.39;99639.56;5055161;28;20228;-81
2021/09/29 03:21:44;;;;;;;16.40;14.40;;;;;;;11.90;87.66;99637.56;5054778;28;20167;-81
2021/09/29 03:24:51;;;;;;;18.30;14.90;;;;;;;11.84;87.82;99621.56;5057110;28;20190;-81
2021/09/29 03:27:31;;;;;;;17.50;14.83;;;;;;;11.81;87.74;99620.16;5054848;28;20222;-81
2021/09/29 03:30:19;;;;;;;16.53;14.83;;;;;;;11.74;87.42;99619.44;5056450;28;20182;-81
2021/09/29 03:33:10;;;;;;;16.10;14.37;;;;;;;11.60;87.93;99612.56;5142762;23;20229;-81
2021/09/29 03:35:45;;;;;;;16.67;14.63;;;;;;;11.65;87.75;99636.03;5062368;23;20213;-80
2021/09/29 03:38:25;;;;;;;18.03;14.30;;;;;;;11.53;87.64;99611.00;5068398;23;20264;-80
2021/09/29 03:41:18;;;;;;;16.73;14.83;;;;;;;11.66;87.83;99621.59;5046810;23;20186;-80
2021/09/29 03:44:23;;;;;;;16.53;14.80;;;;;;;11.65;87.79;99634.19;5036271;28;20211;-81
2021/09/29 03:46:55;;;;;;;21.27;15.93;;;;;;;11.58;88.04;99622.69;5037395;28;20154;-81
2021/09/29 03:51:00;;;;;;;16.83;15.07;;;;;;;11.59;87.97;99607.41;5017528;28;20164;-80
2021/09/29 03:53:53;;;;;;;18.47;14.93;;;;;;;11.60;88.18;99609.06;5038837;23;20222;-81
2021/09/29 03:57:39;;;;;;;17.93;15.67;;;;;;;11.52;88.23;99612.06;5080833;23;21020;-80
2021/09/29 04:00:40;;;;;;;18.67;15.53;;;;;;;11.42;87.55;99591.97;5060826;28;20175;-80
2021/09/29 04:03:32;;;;;;;18.70;15.13;;;;;;;11.38;88.23;99587.28;5067091;23;20222;-80
2021/09/29 04:06:43;;;;;;;17.60;15.80;;;;;;;11.42;88.09;99608.06;5066701;23;20234;-81
2021/09/29 04:09:52;;;;;;;17.67;14.83;;;;;;;11.38;88.32;99609.53;4999376;28;20235;-82
2021/09/29 04:12:59;;;;;;;16.20;14.40;;;;;;;11.34;88.51;99602.97;5000685;28;20192;-81
2021/09/29 04:16:09;;;;;;;16.83;14.63;;;;;;;11.35;88.14;99598.44;5030131;23;20302;-81
2021/09/29 04:18:42;;;;;;;17.23;15.20;;;;;;;11.13;88.15;99576.63;5019809;28;20219;-81
2021/09/29 04:21:42;;;;;;;18.57;14.93;;;;;;;11.26;87.92;99599.78;5020907;28;20191;-81
2021/09/29 04:24:34;;;;;;;16.73;14.90;;;;;;;11.25;88.45;99604.31;5038485;22;20240;-82
2021/09/29 04:27:11;;;;;;;18.03;15.07;;;;;;;11.25;88.31;99601.63;5059922;28;20221;-81
2021/09/29 04:30:16;;;;;;;17.57;15.30;;;;;;;11.25;88.64;99596.28;5060146;28;20669;-81
2021/09/29 04:33:30;;;;;;;20.50;15.80;;;;;;;11.29;88.48;99605.50;5068806;23;20193;-81
2021/09/29 04:36:09;;;;;;;18.80;16.27;;;;;;;11.28;88.50;99603.06;5079704;28;20176;-81
2021/09/29 04:39:16;;;;;;;18.90;15.80;;;;;;;11.21;88.18;99591.59;5079266;28;20223;-80
2021/09/29 04:42:09;;;;;;;20.10;15.57;;;;;;;11.32;88.34;99612.31;5086319;23;20296;-81
2021/09/29 04:45:19;;;;;;;16.40;14.70;;;;;;;11.37;88.41;99612.44;5077853;28;20235;-82
2021/09/29 04:48:09;;;;;;;17.00;15.00;;;;;;;11.35;88.20;99610.00;5084836;23;20287;-81
2021/09/29 04:50:48;;;;;;;15.87;14.17;;;;;;;11.35;88.18;99607.31;5078782;28;20177;-82
2021/09/29 04:53:43;;;;;;;14.50;13.00;;;;;;;11.41;88.14;99617.13;5086040;23;20220;-81
2021/09/29 04:56:11;;;;;;;17.17;13.90;;;;;;;11.43;88.19;99620.41;5079329;28;20181;-81
2021/09/29 04:58:56;;;;;;;15.90;14.07;;;;;;;11.34;87.97;99594.09;5080222;28;20157;-81
2021/09/29 05:01:43;;;;;;;15.27;13.67;;;;;;;11.47;88.37;99621.63;5070223;28;20186;-81
2021/09/29 05:04:33;;;;;;;14.77;13.27;;;;;;;11.58;88.11;99628.06;5038543;22;20249;-81
2021/09/29 05:08:16;;;;;;;15.67;13.53;;;;;;;11.63;87.99;99624.69;5053274;23;20298;-81
2021/09/29 05:11:50;;;;;;;15.53;13.13;;;;;;;11.70;87.60;99614.72;5079014;28;20224;-82
2021/09/29 05:15:01;;;;;;;17.23;13.87;;;;;;;11.66;86.57;99603.63;5099977;22;20237;-81
2021/09/29 05:18:31;;;;;;;17.13;13.90;;;;;;;11.81;87.31;99622.00;5142839;22;20224;-81
2021/09/29 05:21:25;;;;;;;15.20;13.60;;;;;;;11.83;87.16;99617.25;5068447;23;20290;-81
2021/09/29 05:24:29;;;;;;;14.93;13.23;;;;;;;11.86;87.14;99620.28;5042454;28;20222;-81
2021/09/29 05:27:22;;;;;;;15.83;13.57;;;;;;;11.94;86.18;99623.72;5056141;28;20190;-80
2021/09/29 05:30:06;;;;;;;17.33;13.27;;;;;;;12.09;86.29;99626.78;5055798;28;20233;-81
2021/09/29 05:33:04;;;;;;;16.17;14.00;;;;;;;12.10;85.19;99626.56;5055387;28;20190;-81
2021/09/29 05:35:38;;;;;;;15.10;13.60;;;;;;;12.19;84.87;99625.16;5055685;28;20244;-81
2021/09/29 05:38:21;;;;;;;15.40;13.47;;;;;;;12.24;84.77;99625.31;5079989;23;20255;-80
2021/09/29 05:40:56;;;;;;;14.93;13.40;;;;;;;12.35;85.03;99623.69;5075858;28;20300;-81
2021/09/29 05:43:47;;;;;;;15.60;14.00;;;;;;;12.34;84.91;99617.50;5084836;23;20288;-81
2021/09/29 05:46:41;;;;;;;18.87;14.63;;;;;;;12.51;84.41;99622.19;5080300;28;20221;-81
2021/09/29 05:49:24;;;;;;;16.00;14.40;;;;;;;12.63;84.18;99633.78;5093314;28;20187;-81
2021/09/29 05:51:57;;;;;;;16.53;14.70;;;;;;;12.75;83.41;99623.84;5077771;28;20229;-81
2021/09/29 05:55:34;;;;;;;15.77;14.17;;;;;;;12.84;82.80;99624.31;5066713;23;20650;-81
2021/09/29 05:58:21;;;;;;;16.73;12.77;;;;;;;13.07;82.95;99626.97;5054115;28;20194;-82
2021/09/29 06:01:13;;;;;;;16.07;14.37;;;;;;;13.27;82.45;99623.94;5033488;28;20262;-82
2021/09/29 06:04:09;;;;;;;15.57;13.97;;;;;;;13.31;81.58;99623.22;5032753;28;20234;-82
2021/09/29 06:06:42;;;;;;;15.63;13.77;;;;;;;13.50;81.46;99619.31;5089147;23;20233;-83
2021/09/29 06:09:14;;;;;;;18.03;14.77;;;;;;;13.61;80.79;99615.78;5071507;28;20294;-89
2021/09/29 06:11:41;;;;;;;16.33;14.37;;;;;;;13.78;79.75;99625.78;5079102;28;20253;-86
2021/09/29 06:14:09;;;;;;;18.00;15.53;;;;;;;13.90;79.92;99638.16;5060149;28;20260;-90
2021/09/29 06:16:43;;;;;;;16.83;15.00;;;;;;;13.98;79.92;99635.06;5043688;28;20253;-89
2021/09/29 06:19:10;;;;;;;16.30;14.60;;;;;;;14.15;79.17;99645.06;5058802;28;20279;-89
2021/09/29 06:21:37;;;;;;;17.37;15.20;;;;;;;14.28;78.55;99639.34;5058859;28;20244;-85
2021/09/29 06:24:04;;;;;;;18.20;15.33;;;;;;;14.40;78.04;99640.16;5058222;28;20623;-92
2021/09/29 06:26:31;;;;;;;16.17;14.43;;;;;;;14.59;77.86;99644.25;5058704;28;20230;-91
2021/09/29 06:28:58;;;;;;;16.67;14.87;;;;;;;14.68;77.99;99636.56;5058486;28;20226;-90
2021/09/29 06:31:26;;;;;;;16.47;14.47;;;;;;;14.90;77.85;99632.84;5058508;28;20232;-90
2021/09/29 06:33:53;;;;;;;16.43;14.27;;;;;;;15.07;76.72;99648.22;5040233;28;20257;-91
2021/09/29 06:36:20;;;;;;;17.90;15.80;;;;;;;15.24;75.99;99636.31;5021768;28;20233;-89
2021/09/29 06:38:46;;;;;;;16.90;14.30;;;;;;;15.41;74.58;99649.75;5022136;28;20224;-91
2021/09/29 06:41:13;;;;;;;16.37;14.73;;;;;;;15.43;75.26;99644.91;5005663;28;20225;-92
2021/09/29 06:43:40;;;;;;;20.03;15.20;;;;;;;15.61;73.67;99657.31;5038469;28;20236;-89
2021/09/29 06:46:07;;;;;;;16.37;14.67;;;;;;;15.60;73.34;99653.78;5037710;28;20225;-92
2021/09/29 06:48:33;;;;;;;19.90;15.10;;;;;;;15.80;73.15;99654.03;5038570;28;20236;-92
2021/09/29 06:51:00;;;;;;;17.10;15.17;;;;;;;15.93;73.18;99663.63;5021895;28;20314;-92
2021/09/29 06:53:27;;;;;;;17.90;16.10;;;;;;;15.82;72.88;99665.41;5021747;28;20237;-91
2021/09/29 06:55:54;;;;;;;17.30;15.40;;;;;;;16.07;71.46;99654.06;5038061;28;20225;-90
2021/09/29 06:58:21;;;;;;;17.97;16.17;;;;;;;16.31;71.87;99665.38;5037872;28;20291;-85
2021/09/29 07:00:48;;;;;;;21.40;17.37;;;;;;;16.26;71.75;99673.44;5037878;28;20235;-89
2021/09/29 07:03:15;;;;;;;20.37;17.73;;;;;;;16.29;72.02;99670.22;5021512;28;20252;-89
2021/09/29 07:05:42;;;;;;;19.47;17.43;;;;;;;16.29;71.54;99673.75;5038029;28;20543;-91
2021/09/29 07:08:08;;;;;;;19.93;17.83;;;;;;;16.47;71.70;99682.56;5056810;28;20278;-91
2021/09/29 07:10:35;;;;;;;21.13;17.60;;;;;;;16.53;70.89;99674.22;5057811;28;20236;-90
2021/09/29 07:13:02;;;;;;;18.87;16.80;;;;;;;16.72;71.02;99683.63;5041119;28;20282;-91
2021/09/29 07:15:29;;;;;;;20.00;18.00;;;;;;;16.82;70.78;99685.59;5040718;28;20316;-91
2021/09/29 07:17:57;;;;;;;20.23;17.27;;;;;;;16.93;70.19;99683.78;5058169;28;20655;-92
2021/09/29 07:20:24;;;;;;;20.20;17.17;;;;;;;17.18;69.63;99690.19;5041149;28;20223;-90
2021/09/29 07:22:52;;;;;;;19.97;17.33;;;;;;;17.34;69.26;99684.88;5040986;28;20235;-90
2021/09/29 07:25:20;;;;;;;23.30;17.53;;;;;;;17.44;67.76;99680.34;5041394;28;20633;-87
2021/09/29 07:27:47;;;;;;;18.70;16.67;;;;;;;17.68;67.43;99680.75;5041328;28;20228;-91
2021/09/29 07:30:13;;;;;;;22.53;18.33;;;;;;;17.46;67.79;99690.88;5058156;28;20227;-89
2021/09/29 07:32:41;;;;;;;21.23;18.13;;;;;;;17.87;66.53;99692.72;5061460;28;20610;-87
2021/09/29 07:35:08;;;;;;;20.00;17.03;;;;;;;18.03;65.50;99680.88;5062092;28;20234;-91
2021/09/29 07:37:35;;;;;;;21.50;18.23;;;;;;;18.30;66.44;99693.38;5078990;28;20232;-90
2021/09/29 07:40:05;;;;;;;19.33;17.37;;;;;;;18.66;64.43;99697.00;5045107;28;20628;-85
2021/09/29 07:42:32;;;;;;;19.70;17.37;;;;;;;18.55;64.25;99714.34;5044945;28;20648;-91
2021/09/29 07:44:59;;;;;;;21.47;17.97;;;;;;;18.43;65.54;99717.28;5061613;28;20228;-87
2021/09/29 07:47:26;;;;;;;19.83;17.50;;;;;;;18.68;64.56;99741.78;5045080;28;20308;-86
2021/09/29 07:49:52;;;;;;;19.93;17.90;;;;;;;18.44;64.84;99757.72;5061456;28;20531;-88
2021/09/29 07:52:19;;;;;;;18.90;16.97;;;;;;;17.62;66.87;99743.28;5044250;28;20278;-85
2021/09/29 07:54:46;;;;;;;21.13;18.80;;;;;;;17.60;67.00;99759.78;5044649;28;20229;-91
2021/09/29 07:57:13;;;;;;;20.03;18.03;;;;;;;17.41;67.87;99759.38;5059954;28;20267;-91
2021/09/29 07:59:39;;;;;;;19.83;17.73;;;;;;;17.21;68.04;99769.25;5042992;28;20225;-89
2021/09/29 08:02:06;;;;;;;23.43;18.67;;;;;;;16.70;69.54;99766.13;5043609;28;20245;-90
2021/09/29 08:04:34;;;;;;;22.40;18.57;;;;;;;16.49;70.90;99756.94;5044375;28;20251;-90
2021/09/29 08:07:01;;;;;;;21.57;19.20;;;;;;;16.44;70.75;99759.59;5013048;28;20234;-86
2021/09/29 08:09:28;;;;;;;21.77;19.10;;;;;;;16.30;71.34;99747.56;5001004;28;20536;-87
2021/09/29 08:11:55;;;;;;;22.50;19.83;;;;;;;16.33;71.40;99740.84;5000259;28;20691;-91
2021/09/29 08:14:23;;;;;;;22.97;19.30;;;;;;;16.48;71.10;99749.09;5016914;28;20317;-92
2021/09/29 08:16:50;;;;;;;22.93;19.47;;;;;;;16.35;71.28;99731.38;5017026;28;20301;-91
2021/09/29 08:19:17;;;;;;;23.97;19.40;;;;;;;16.32;71.69;99736.50;5001238;28;20230;-90
2021/09/29 08:21:45;;;;;;;22.80;20.17;;;;;;;16.51;71.73;99724.25;5017443;28;20231;-91
2021/09/29 08:24:17;;;;;;;22.17;19.77;;;;;;;16.76;70.49;99731.81;5016835;28;20223;-91
2021/09/29 08:32:13;;;;;;;21.60;19.40;;;;;;;17.23;69.51;99730.00;5017247;28;20230;-91
2021/09/29 08:40:11;;;;;;;22.33;19.97;;;;;;;17.73;67.27;99713.25;5017834;28;20646;-90
2021/09/29 08:45:55;;;;;;;22.30;19.07;;;;;;;18.19;66.17;99740.56;5019535;28;20397;-88
2021/09/29 08:48:36;;;;;;;21.57;18.53;;;;;;;18.38;65.52;99739.78;5035988;28;20309;-88
2021/09/29 09:15:53;;;;;;;24.03;19.30;;;;;;;18.76;65.46;99752.09;5002525;28;20247;-85
2021/09/29 09:18:21;;;;;;;22.47;19.13;;;;;;;18.83;65.23;99751.84;5008927;28;20302;-87
2021/09/29 09:21:11;;;;;;;23.30;19.13;;;;;;;18.86;64.48;99749.38;5039284;28;20218;-85
2021/09/29 09:23:40;;;;;;;21.57;19.27;;;;;;;18.85;64.42;99746.94;5056151;28;20226;-84
2021/09/29 09:26:17;;;;;;;24.40;19.00;;;;;;;18.85;64.34;99746.94;5055250;28;20774;-85
2021/09/29 09:28:44;;;;;;;22.67;20.33;;;;;;;18.80;63.99;99747.75;5039564;28;20221;-87
2021/09/29 09:31:14;;;;;;;22.57;18.80;;;;;;;18.71;64.90;99751.28;5039157;28;20256;-87
2021/09/29 09:33:51;;;;;;;20.57;18.37;;;;;;;18.78;64.73;99751.81;5038895;28;20233;-87
2021/09/29 09:36:36;;;;;;;22.20;18.70;;;;;;;18.97;63.42;99752.09;5054959;28;20229;-86
2021/09/29 09:39:10;;;;;;;21.13;18.93;;;;;;;19.08;64.11;99740.16;5039127;28;20339;-87
2021/09/29 09:41:37;;;;;;;20.03;17.80;;;;;;;19.19;63.52;99750.75;5039215;28;20279;-87
2021/09/29 09:44:05;;;;;;;20.60;18.40;;;;;;;19.42;62.73;99751.25;5031182;28;20238;-85
2021/09/29 09:46:32;;;;;;;21.43;18.23;;;;;;;19.74;61.20;99752.56;5015132;28;20234;-86
2021/09/29 09:49:03;;;;;;;21.37;17.73;;;;;;;20.01;61.05;99752.22;5015794;28;20238;-84
2021/09/29 09:51:33;;;;;;;21.90;18.60;;;;;;;20.25;60.52;99754.28;4999260;28;20248;-85
2021/09/29 09:54:00;;;;;;;21.70;18.63;;;;;;;20.20;59.65;99741.53;5033143;28;20643;-83
2021/09/29 09:56:32;;;;;;;20.90;17.57;;;;;;;20.60;58.85;99745.94;5001741;28;20695;-84
2021/09/29 09:58:59;;;;;;;20.60;17.17;;;;;;;20.83;58.46;99731.59;5003528;28;20286;-88
2021/09/29 10:01:29;;;;;;;19.80;17.80;;;;;;;21.08;56.95;99749.66;5019332;28;20232;-89
2021/09/29 10:04:07;;;;;;;20.33;18.13;;;;;;;21.15;56.58;99736.53;5003142;28;20231;-88
2021/09/29 10:06:34;;;;;;;19.53;17.53;;;;;;;21.43;55.44;99733.00;5029987;28;20599;-89
2021/09/29 10:09:09;;;;;;;18.60;16.67;;;;;;;21.44;55.50;99733.81;5022585;28;20243;-89
2021/09/29 10:14:44;;;;;;;19.40;17.60;;;;;;;21.32;55.84;99747.03;5020326;28;20252;-83
2021/09/29 10:28:24;;;;;;;19.73;17.63;;;;;;;21.72;54.25;99749.31;5060926;28;20262;-88
2021/09/29 10:31:18;;;;;;;20.53;18.33;;;;;;;21.63;53.94;99751.06;5074934;28;20495;-89
2021/09/29 10:34:02;;;;;;;19.97;17.97;;;;;;;21.87;54.09;99751.88;5061359;28;20322;-89
2021/09/29 10:42:03;;;;;;;22.43;18.07;;;;;;;22.85;51.07;99754.97;5060824;28;20256;-87
2021/09/29 10:47:35;;;;;;;18.97;16.97;;;;;;;23.21;50.25;99761.47;5034917;28;20238;-87
2021/09/29 11:07:08;;;;;;;19.33;17.53;;;;;;;21.90;54.70;99761.38;5027221;28;20234;-86
2021/09/29 11:12:23;;;;;;;18.47;16.57;;;;;;;21.95;55.54;99755.91;5022268;28;20284;-87
2021/09/29 11:28:53;;;;;;;17.70;15.43;;;;;;;24.01;49.04;99748.22;5007818;28;20255;-88
2021/09/29 11:31:35;;;;;;;16.30;14.70;;;;;;;24.25;47.91;99742.56;5021919;28;20232;-87
2021/09/29 12:12:36;;;;;;;13.88;12.07;;;;;;;23.12;52.20;99722.28;5038967;28;20237;-83
2021/09/29 12:15:05;;;;;;;13.02;11.65;;;;;;;23.15;52.45;99727.94;5004122;28;20283;-86
2021/09/29 12:17:35;;;;;;;15.70;12.25;;;;;;;23.10;53.19;99722.56;5022130;28;20316;-87
2021/09/29 12:20:13;;;;;;;13.00;11.50;;;;;;;23.01;53.10;99726.28;5007709;28;20226;-87
2021/09/29 12:22:45;;;;;;;14.68;12.77;;;;;;;23.31;52.87;99722.22;5024719;28;20232;-86
2021/09/29 12:25:17;;;;;;;13.80;12.20;;;;;;;23.84;51.81;99712.47;5040567;28;20287;-89
2021/09/29 12:30:34;;;;;;;15.02;13.05;;;;;;;24.53;49.42;99719.47;5042280;28;20647;-85
2021/09/29 12:33:10;;;;;;;15.55;13.85;;;;;;;24.49;49.39;99720.41;5041745;28;20277;-87
2021/09/29 12:35:54;;;;;;;14.30;12.27;;;;;;;24.15;49.75;99726.31;5043955;28;20230;-87
2021/09/29 12:38:36;;;;;;;13.45;12.05;;;;;;;23.81;50.82;99725.94;5039788;28;20229;-85
2021/09/29 12:41:04;;;;;;;12.38;11.20;;;;;;;23.46;51.73;99722.78;5039670;28;20284;-87
2021/09/29 12:43:30;;;;;;;13.88;11.40;;;;;;;23.52;52.39;99731.69;5039701;28;20577;-86
2021/09/29 12:45:57;;;;;;;16.10;14.57;;;;;;;23.75;51.27;99716.22;5046159;28;20338;-88
2021/09/29 12:48:27;;;;;;;10.40;9.27;;;;;;;23.86;50.34;99731.31;5023591;28;20526;-86
2021/09/29 12:51:00;;;;;;;12.25;8.27;;;;;;;23.74;50.56;99726.34;5024424;28;20225;-85
2021/09/29 12:56:17;;;;;;;11.75;10.55;;;;;;;23.38;52.29;99728.91;5062378;28;20268;-88
2021/09/29 12:58:45;;;;;;;14.02;12.48;;;;;;;23.31;53.30;99733.97;5043512;28;20633;-86
2021/09/29 13:01:12;;;;;;;15.15;13.75;;;;;;;23.34;52.33;99716.94;5043359;28;20252;-87
2021/09/29 13:03:39;;;;;;;16.75;13.82;;;;;;;23.54;51.85;99729.47;5043405;28;20226;-86
2021/09/29 13:06:09;;;;;;;17.13;15.27;;;;;;;23.69;51.40;99724.53;5039419;28;20257;-87
2021/09/29 13:08:36;;;;;;;16.08;14.48;;;;;;;23.70;51.86;99734.34;5039959;28;20711;-86
2021/09/29 13:11:03;;;;;;;16.02;14.38;;;;;;;23.93;51.34;99729.78;5023333;28;20232;-86
2021/09/29 13:13:31;;;;;;;16.10;13.85;;;;;;;24.20;50.08;99725.44;5039658;28;20684;-87
2021/09/29 13:16:00;;;;;;;14.32;12.93;;;;;;;24.48;49.65;99721.50;5056682;28;20229;-86
2021/09/29 13:18:42;;;;;;;14.00;12.70;;;;;;;24.88;48.45;99723.31;5056636;28;20576;-87
2021/09/29 13:21:36;;;;;;;12.68;11.38;;;;;;;25.09;48.57;99731.03;5056384;28;20644;-86
2021/09/29 13:24:14;;;;;;;14.13;12.73;;;;;;;25.01;48.43;99729.06;5042197;28;20416;-87
2021/09/29 13:37:30;;;;;;;3.60;1.77;;;;;;;22.46;47.72;99720.56;5041883;28;20291;-85
2021/09/29 13:39:56;;;;;;;1.70;1.60;;;;;;;22.63;47.86;99729.03;5039453;28;20526;-86
2021/09/29 13:42:23;;;;;;;4.27;1.70;;;;;;;22.58;48.19;99731.88;5022642;28;20321;-86
2021/09/29 13:44:52;;;;;;;5.10;1.70;;;;;;;22.63;47.97;99729.03;5023196;28;20312;-88
2021/09/29 13:47:19;;;;;;;3.00;1.77;;;;;;;22.72;47.58;99737.44;5038878;28;20262;-88
2021/09/29 13:49:47;;;;;;;2.23;1.40;;;;;;;22.52;47.89;99734.97;5055497;28;20242;-84
2021/09/29 13:52:17;;;;;;;3.60;1.73;;;;;;;22.59;48.56;99736.19;5037693;28;20229;-88
2021/09/29 13:54:44;;;;;;;1.80;1.70;;;;;;;22.67;48.64;99732.00;5055591;28;20222;-88
2021/09/29 14:30:41;;;;;;;2.20;1.70;;;;;;;22.03;47.30;99718.97;5021003;28;21117;-85
2021/09/29 14:33:29;;;;;;;2.17;2.00;;;;;;;21.85;48.03;99726.81;5019114;28;20239;-87
2021/09/29 14:35:56;;;;;;;2.20;1.50;;;;;;;21.94;48.18;99718.81;4985026;28;20226;-86
2021/09/29 14:38:23;;;;;;;2.03;1.43;;;;;;;21.78;48.31;99728.28;4997097;28;20230;-84
2021/09/29 14:40:50;;;;;;;2.60;1.60;;;;;;;21.60;48.79;99724.38;4997781;28;20230;-87
2021/09/29 14:43:17;;;;;;;3.17;1.50;;;;;;;21.56;48.66;99733.44;5015803;28;20513;-85
2021/09/29 14:45:45;;;;;;;2.97;1.50;;;;;;;21.37;49.40;99730.63;4982487;28;20640;-86
2021/09/29 14:48:12;;;;;;;2.80;1.70;;;;;;;21.28;49.97;99735.06;5026765;28;20306;-88
2021/09/29 14:50:39;;;;;;;2.20;1.47;;;;;;;21.16;49.95;99745.53;5054130;28;20228;-83
2021/09/29 14:53:06;;;;;;;4.03;1.70;;;;;;;20.86;50.86;99725.59;5034158;28;20232;-87
2021/09/29 14:55:33;;;;;;;2.30;1.70;;;;;;;20.98;51.08;99745.13;5039594;28;20663;-86
2021/09/29 14:58:01;;;;;;;2.20;1.70;;;;;;;20.81;51.34;99741.16;5037903;28;20228;-87
2021/09/29 15:00:30;;;;;;;1.93;1.50;;;;;;;20.64;51.74;99726.03;5037292;28;20226;-88
2021/09/29 15:02:59;;;;;;;3.10;1.47;;;;;;;20.76;52.35;99741.22;5037461;28;20231;-87
2021/09/29 15:05:27;;;;;;;1.50;1.40;;;;;;;20.68;52.26;99748.06;5052632;28;20230;-87